KJCT

Kimble County Airport

Junction, Texas, USA
KJCT 161740Z 1618/1718 16008KT P6SM FEW080 FM170200 VRB04KT P6SM SKC
Issued Valid From Valid To
Jul-16 @ 17:40 UTC
(2 hours ago)
Jul-16 @ 18:00 UTC
(2 hours ago)
Jul-17 @ 18:00 UTC
(in 22 hours)
Jul-16 @ 18:00 to Jul-17 @ 02:00
KJCT 161740Z 1618/1718 16008KT P6SM FEW080
Wind Visibility Clouds
160° at 8 knots Greater than 6 miles
  • Few at 8,000' AGL
From Jul-17 @ 02:00 to Jul-17 @ 18:00
FM170200 VRB04KT P6SM SKC
Wind Visibility Clouds
Variable at 4 knots Greater than 6 miles
  • Clear skies
KJCT 161740Z 1618/1718 16008KT P6SM FEW080 FM170200 VRB04KT P6SM SKC
Issued Jul-16 @ 17:40 UTC
(2 hours ago)
Valid From Jul-16 @ 18:00 UTC
(2 hours ago)
Valid To Jul-17 @ 18:00 UTC
(in 22 hours)
Jul-16 @ 18:00 - Jul-17 @ 02:00
Wind Visibility
160° at 8 knots Greater than 6 miles
Clouds
  • Few at 8,000' AGL
From Jul-17 @ 02:00 - Jul-17 @ 18:00
Wind Visibility
Variable at 4 knots Greater than 6 miles
Clouds
  • Clear skies